createdAt,value
2022-11-14T00:00:17.032Z,49.91
2022-11-14T00:03:06.369Z,49.51
2022-11-14T00:05:51.495Z,49.92
2022-11-14T00:08:36.977Z,49.79
2022-11-14T00:11:22.377Z,49.84
2022-11-14T00:14:07.756Z,50.62
2022-11-14T00:16:53.268Z,50.37
2022-11-14T00:19:38.620Z,50.28
2022-11-14T00:22:24.023Z,50.31
2022-11-14T00:25:10.849Z,51.14
2022-11-14T00:27:58.811Z,50.64
2022-11-14T00:30:49.174Z,50.53
2022-11-14T00:33:34.302Z,49.80
2022-11-14T00:36:19.843Z,50.13
2022-11-14T00:39:05.421Z,50.92
2022-11-14T00:41:51.460Z,51.55
2022-11-14T00:44:36.740Z,52.09
2022-11-14T00:47:22.255Z,51.87
2022-11-14T00:50:08.222Z,51.79
2022-11-14T00:52:53.927Z,52.17
2022-11-14T00:55:39.507Z,51.68
2022-11-14T00:58:25.138Z,51.35
2022-11-14T01:01:10.735Z,51.87
2022-11-14T01:03:56.038Z,52.03
2022-11-14T01:06:41.490Z,52.32
2022-11-14T01:09:27.274Z,51.80
2022-11-14T01:12:12.549Z,51.81
2022-11-14T01:14:57.967Z,51.80
2022-11-14T01:17:43.354Z,51.99
2022-11-14T01:20:28.883Z,52.05
2022-11-14T01:23:16.361Z,52.95
2022-11-14T01:26:04.082Z,52.38
2022-11-14T01:28:49.756Z,52.13
2022-11-14T01:31:35.276Z,52.03
2022-11-14T01:34:22.471Z,51.89
2022-11-14T01:37:07.877Z,52.66
2022-11-14T01:39:53.285Z,51.84
2022-11-14T01:42:38.805Z,51.93
2022-11-14T01:45:51.937Z,52.61
2022-11-14T01:48:45.776Z,52.06
2022-11-14T01:51:47.055Z,51.86
2022-11-14T01:54:38.914Z,51.51
2022-11-14T01:57:29.751Z,51.44
2022-11-14T02:00:15.807Z,51.30
2022-11-14T02:03:01.179Z,51.45
2022-11-14T02:05:48.811Z,52.38
2022-11-14T02:08:35.121Z,52.40
2022-11-14T02:11:20.418Z,52.05
2022-11-14T02:14:07.371Z,52.55
2022-11-14T02:17:22.240Z,52.93
2022-11-14T02:20:11.437Z,52.26
2022-11-14T02:22:57.261Z,53.01
2022-11-14T02:25:42.280Z,53.23
2022-11-14T02:28:28.211Z,54.49
2022-11-14T02:31:14.640Z,54.27
2022-11-14T02:34:00.035Z,53.32
2022-11-14T02:36:45.600Z,53.91
2022-11-14T02:39:31.303Z,53.82
2022-11-14T02:42:16.590Z,54.86
2022-11-14T02:45:01.930Z,54.65
2022-11-14T02:47:47.304Z,54.34
2022-11-14T02:50:32.920Z,53.36
2022-11-14T02:53:18.252Z,54.00
2022-11-14T02:56:03.839Z,54.04
2022-11-14T02:58:49.622Z,54.46
2022-11-14T03:01:35.065Z,54.17
2022-11-14T03:04:20.346Z,53.92
2022-11-14T03:07:06.040Z,54.67
2022-11-14T03:09:51.391Z,54.07
2022-11-14T03:12:37.031Z,54.37
2022-11-14T03:15:24.138Z,53.45
2022-11-14T03:18:09.798Z,54.33
2022-11-14T03:20:54.904Z,53.78
2022-11-14T03:23:40.487Z,53.40
2022-11-14T03:26:26.224Z,53.45
2022-11-14T03:29:11.518Z,54.23
2022-11-14T03:31:56.950Z,53.72
2022-11-14T03:34:42.929Z,55.37
2022-11-14T03:37:28.207Z,55.88
2022-11-14T03:40:13.539Z,55.36
2022-11-14T03:42:58.751Z,55.07
2022-11-14T03:45:44.313Z,54.70
2022-11-14T03:48:31.081Z,54.60
2022-11-14T03:51:17.009Z,53.90
2022-11-14T03:54:02.559Z,54.46
2022-11-14T03:56:47.855Z,54.22
2022-11-14T03:59:33.192Z,54.54
2022-11-14T04:02:18.512Z,54.14
2022-11-14T04:05:04.263Z,54.42
2022-11-14T04:07:50.357Z,54.09
2022-11-14T04:10:35.975Z,56.77
2022-11-14T04:13:21.321Z,55.44
2022-11-14T04:16:08.459Z,56.05
2022-11-14T04:18:54.265Z,55.98
2022-11-14T04:21:39.704Z,54.71
2022-11-14T04:24:25.202Z,54.90
2022-11-14T04:27:10.963Z,54.24
2022-11-14T04:29:56.662Z,54.75
2022-11-14T04:32:41.963Z,54.58
2022-11-14T04:35:27.355Z,54.55
2022-11-14T04:38:12.720Z,53.78
2022-11-14T04:40:58.118Z,54.62
2022-11-14T04:43:48.093Z,53.26
2022-11-14T04:46:35.737Z,53.73
2022-11-14T04:49:22.063Z,53.92
2022-11-14T04:52:07.481Z,54.04
2022-11-14T04:54:53.063Z,53.44
2022-11-14T04:57:38.691Z,53.94
2022-11-14T05:00:25.027Z,53.71
2022-11-14T05:03:10.597Z,52.77
2022-11-14T05:06:01.099Z,53.01
2022-11-14T05:08:48.558Z,52.42
2022-11-14T05:11:33.841Z,52.74
2022-11-14T05:14:19.294Z,58.61
2022-11-14T05:17:05.754Z,58.35
2022-11-14T05:19:51.165Z,55.43
2022-11-14T05:22:36.902Z,55.42
2022-11-14T05:25:23.050Z,54.83
2022-11-14T05:28:08.144Z,54.24
2022-11-14T05:30:53.443Z,53.74
2022-11-14T05:33:39.468Z,54.88
2022-11-14T05:36:24.851Z,54.21
2022-11-14T05:39:10.081Z,53.29
2022-11-14T05:41:55.669Z,53.83
2022-11-14T05:44:41.224Z,53.41
2022-11-14T05:47:26.627Z,53.40
2022-11-14T05:50:12.101Z,54.11
2022-11-14T05:52:57.468Z,54.02
2022-11-14T05:55:43.026Z,53.75
2022-11-14T05:58:29.222Z,53.80
2022-11-14T06:01:18.246Z,54.54
2022-11-14T06:04:06.858Z,54.61
2022-11-14T06:06:52.276Z,55.58
2022-11-14T06:09:37.566Z,54.69
2022-11-14T06:12:23.034Z,54.33
2022-11-14T06:15:08.678Z,53.85
2022-11-14T06:17:54.907Z,53.75
2022-11-14T06:20:40.207Z,54.68
2022-11-14T06:23:25.487Z,54.18
2022-11-14T06:26:23.535Z,54.03
2022-11-14T06:29:10.315Z,54.13
2022-11-14T06:31:56.084Z,54.12
2022-11-14T06:34:41.174Z,54.38
2022-11-14T06:37:29.385Z,54.71
2022-11-14T06:40:17.849Z,55.07
2022-11-14T06:43:03.223Z,55.08
2022-11-14T06:45:48.565Z,54.80
2022-11-14T06:48:35.764Z,55.03
2022-11-14T06:51:21.432Z,54.96
2022-11-14T06:54:06.878Z,55.19
2022-11-14T06:56:52.115Z,54.29
2022-11-14T06:59:37.593Z,55.14
2022-11-14T07:02:22.974Z,55.58
2022-11-14T07:05:08.468Z,54.37
2022-11-14T07:07:53.798Z,54.59
2022-11-14T07:10:40.611Z,55.25
2022-11-14T07:13:25.848Z,54.57
2022-11-14T07:16:11.364Z,54.89
2022-11-14T07:19:00.708Z,54.31
2022-11-14T07:21:46.433Z,54.51
2022-11-14T07:24:31.765Z,54.39
2022-11-14T07:27:17.228Z,53.82
2022-11-14T07:30:02.717Z,53.62
2022-11-14T07:32:55.264Z,53.82
2022-11-14T07:35:41.941Z,53.81
2022-11-14T07:38:28.020Z,53.48
2022-11-14T07:41:16.169Z,55.80
2022-11-14T07:44:01.511Z,55.08
2022-11-14T07:46:46.750Z,56.68
2022-11-14T07:49:32.031Z,56.65
2022-11-14T07:52:18.066Z,56.08
2022-11-14T07:55:03.746Z,53.95
2022-11-14T07:57:53.609Z,54.05
2022-11-14T08:00:39.580Z,54.24
2022-11-14T08:03:24.854Z,54.12
2022-11-14T08:06:11.979Z,53.34
2022-11-14T08:08:57.713Z,54.34
2022-11-14T08:11:49.255Z,54.52
2022-11-14T08:14:34.871Z,54.74
2022-11-14T08:17:21.431Z,54.77
2022-11-14T08:20:08.921Z,53.29
2022-11-14T08:23:09.923Z,53.81
2022-11-14T08:25:57.900Z,54.38
2022-11-14T08:28:43.199Z,54.13
2022-11-14T08:31:28.811Z,54.17
2022-11-14T08:34:14.417Z,54.87
2022-11-14T08:37:01.389Z,53.41
2022-11-14T08:39:47.116Z,52.68
2022-11-14T08:42:32.608Z,53.30
2022-11-14T08:45:17.831Z,53.05
2022-11-14T08:48:03.284Z,52.64
2022-11-14T08:50:48.713Z,52.70
2022-11-14T08:53:34.585Z,54.29
2022-11-14T08:56:19.843Z,53.15
2022-11-14T08:59:05.934Z,53.75
2022-11-14T09:01:51.776Z,52.93
2022-11-14T09:04:37.423Z,52.99
2022-11-14T09:07:23.147Z,53.25
2022-11-14T09:10:08.959Z,52.49
2022-11-14T09:12:58.710Z,51.80
2022-11-14T09:15:44.659Z,51.91
2022-11-14T09:18:31.209Z,52.65
2022-11-14T09:21:17.050Z,52.89
2022-11-14T09:24:02.508Z,51.38
2022-11-14T09:26:55.036Z,53.25
2022-11-14T09:29:42.089Z,53.57
2022-11-14T09:32:28.346Z,52.71
2022-11-14T09:35:14.128Z,51.84
2022-11-14T09:38:05.080Z,53.14
2022-11-14T09:41:09.011Z,51.76
2022-11-14T09:44:00.566Z,53.11
2022-11-14T09:46:52.478Z,54.24
2022-11-14T09:49:46.494Z,53.74
2022-11-14T09:52:46.387Z,52.50
2022-11-14T09:55:37.084Z,52.14
2022-11-14T09:58:23.135Z,51.35
2022-11-14T10:01:17.905Z,51.99
2022-11-14T10:04:12.644Z,49.61
2022-11-14T10:07:35.252Z,49.90
2022-11-14T10:10:39.661Z,53.48
2022-11-14T10:13:27.683Z,51.08
2022-11-14T10:16:40.750Z,52.65
2022-11-14T10:19:41.466Z,52.20
2022-11-14T10:22:55.121Z,50.40
2022-11-14T10:26:02.822Z,50.30
2022-11-14T10:28:54.559Z,52.38
2022-11-14T10:31:52.178Z,51.58
2022-11-14T10:34:56.919Z,48.12
2022-11-14T10:38:04.928Z,50.06
2022-11-14T10:40:54.405Z,50.19
2022-11-14T10:43:50.923Z,51.03
2022-11-14T10:46:45.497Z,48.88
2022-11-14T10:49:33.485Z,51.83
2022-11-14T10:52:26.017Z,50.02
2022-11-14T10:55:16.687Z,49.57
2022-11-14T10:58:02.256Z,50.16
2022-11-14T11:00:47.523Z,49.37
2022-11-14T11:03:45.192Z,48.08
2022-11-14T11:06:30.741Z,48.16
2022-11-14T11:09:45.160Z,47.70
2022-11-14T11:12:37.405Z,46.54
2022-11-14T11:15:28.417Z,48.27
2022-11-14T11:18:28.160Z,48.64
2022-11-14T11:21:16.916Z,48.97
2022-11-14T11:24:02.208Z,48.77
2022-11-14T11:26:47.607Z,46.62
2022-11-14T11:29:33.020Z,47.52
2022-11-14T11:32:26.473Z,46.54
2022-11-14T11:35:15.260Z,46.97
2022-11-14T11:38:03.325Z,46.36
2022-11-14T11:40:52.682Z,45.83
2022-11-14T11:43:57.323Z,43.65
2022-11-14T11:47:01.250Z,42.72
2022-11-14T11:49:54.170Z,40.99
2022-11-14T11:52:43.402Z,38.27
2022-11-14T11:55:54.796Z,36.46
2022-11-14T11:58:48.502Z,34.50
2022-11-14T12:01:34.045Z,34.89
2022-11-14T12:04:19.393Z,33.81
2022-11-14T12:07:15.648Z,34.00
2022-11-14T12:10:11.288Z,34.36
2022-11-14T12:13:45.565Z,31.47
2022-11-14T12:17:03.573Z,30.01
2022-11-14T12:20:07.165Z,29.40
2022-11-14T12:23:30.058Z,32.15
2022-11-14T12:26:35.009Z,31.17
2022-11-14T12:29:46.175Z,30.89
2022-11-14T12:32:37.309Z,29.11
2022-11-14T12:35:28.053Z,29.30
2022-11-14T12:38:16.115Z,27.85
2022-11-14T12:41:02.244Z,27.08
2022-11-14T12:43:47.777Z,28.40
2022-11-14T12:47:05.504Z,27.33
2022-11-14T12:49:53.987Z,26.49
2022-11-14T12:52:54.107Z,27.02
2022-11-14T12:55:45.783Z,25.46
2022-11-14T12:58:31.267Z,26.90
2022-11-14T13:01:30.854Z,26.24
2022-11-14T13:04:39.412Z,26.70
2022-11-14T13:07:43.553Z,26.86
2022-11-14T13:10:38.986Z,27.08
2022-11-14T13:13:44.118Z,27.05
2022-11-14T13:16:51.329Z,27.29
2022-11-14T13:20:04.556Z,28.18
2022-11-14T13:22:50.354Z,28.12
2022-11-14T13:25:35.694Z,28.48
2022-11-14T13:28:36.427Z,28.39
2022-11-14T13:31:42.141Z,28.38
2022-11-14T13:35:06.857Z,29.00
2022-11-14T13:38:04.384Z,30.28
2022-11-14T13:41:22.897Z,32.44
2022-11-14T13:44:27.723Z,33.65
2022-11-14T13:47:48.727Z,35.46
2022-11-14T13:50:40.437Z,36.92
2022-11-14T13:53:32.337Z,37.41
2022-11-14T13:56:48.875Z,38.36
2022-11-14T13:59:46.451Z,39.23
2022-11-14T14:03:10.675Z,39.21
2022-11-14T14:06:14.179Z,39.11
2022-11-14T14:09:22.696Z,39.33
2022-11-14T14:12:27.113Z,39.15
2022-11-14T14:15:35.557Z,39.85
2022-11-14T14:18:45.867Z,39.78
2022-11-14T14:22:16.783Z,39.76
2022-11-14T14:25:22.617Z,40.15
2022-11-14T14:28:16.998Z,40.35
2022-11-14T14:31:12.949Z,41.46
2022-11-14T14:33:58.632Z,41.84
2022-11-14T14:36:51.314Z,42.65
2022-11-14T14:39:37.055Z,41.38
2022-11-14T14:42:23.107Z,41.70
2022-11-14T14:45:20.417Z,42.21
2022-11-14T14:48:18.308Z,41.83
2022-11-14T14:51:05.119Z,43.13
2022-11-14T14:53:54.197Z,42.00
2022-11-14T14:56:53.056Z,42.52
2022-11-14T14:59:42.203Z,42.61
2022-11-14T15:02:28.713Z,43.33
2022-11-14T15:05:23.344Z,43.96
2022-11-14T15:08:14.248Z,43.26
2022-11-14T15:11:01.849Z,43.31
2022-11-14T15:13:52.499Z,43.29
2022-11-14T15:16:38.265Z,43.93
2022-11-14T15:19:25.969Z,44.08
2022-11-14T15:22:21.081Z,43.96
2022-11-14T15:25:12.232Z,44.13
2022-11-14T15:28:01.159Z,43.77
2022-11-14T15:30:57.913Z,44.53
2022-11-14T15:33:43.609Z,44.70
2022-11-14T15:36:28.852Z,44.13
2022-11-14T15:39:29.698Z,44.74
2022-11-14T15:42:24.185Z,43.61
2022-11-14T15:45:39.484Z,44.40
2022-11-14T15:48:25.016Z,44.18
2022-11-14T15:51:10.539Z,44.86
2022-11-14T15:53:55.732Z,43.62
2022-11-14T15:56:41.261Z,45.79
2022-11-14T15:59:29.255Z,45.50
2022-11-14T16:02:20.400Z,45.35
2022-11-14T16:05:06.533Z,45.68
2022-11-14T16:07:52.237Z,45.14
2022-11-14T16:10:56.401Z,45.35
2022-11-14T16:13:41.914Z,44.84
2022-11-14T16:16:27.423Z,45.60
2022-11-14T16:19:16.893Z,45.67
2022-11-14T16:22:03.671Z,45.77
2022-11-14T16:24:49.408Z,45.70
2022-11-14T16:27:34.699Z,45.88
2022-11-14T16:30:21.955Z,46.01
2022-11-14T16:33:09.210Z,45.93
2022-11-14T16:35:54.685Z,45.62
2022-11-14T16:38:40.089Z,46.13
2022-11-14T16:41:25.451Z,46.93
2022-11-14T16:44:15.758Z,46.04
2022-11-14T16:47:01.285Z,46.48
2022-11-14T16:49:46.744Z,46.94
2022-11-14T16:52:32.463Z,46.26
2022-11-14T16:55:18.047Z,46.65
2022-11-14T16:58:03.214Z,46.92
2022-11-14T17:00:49.159Z,47.60
2022-11-14T17:03:34.556Z,46.97
2022-11-14T17:06:19.940Z,46.59
2022-11-14T17:09:05.463Z,47.95
2022-11-14T17:11:50.839Z,49.04
2022-11-14T17:14:36.306Z,51.94
2022-11-14T17:17:21.957Z,51.21
2022-11-14T17:20:08.642Z,49.65
2022-11-14T17:22:55.238Z,51.17
2022-11-14T17:25:40.846Z,53.35
2022-11-14T17:28:26.146Z,51.41
2022-11-14T17:31:11.798Z,49.79
2022-11-14T17:33:59.012Z,49.96
2022-11-14T17:36:44.898Z,51.48
2022-11-14T17:39:30.087Z,50.76
2022-11-14T17:42:15.484Z,50.86
2022-11-14T17:45:01.539Z,50.16
2022-11-14T17:47:46.785Z,50.20
2022-11-14T17:50:37.377Z,49.45
2022-11-14T17:53:23.463Z,48.71
2022-11-14T17:56:21.562Z,51.33
2022-11-14T17:59:07.385Z,50.98
2022-11-14T18:01:55.939Z,51.47
2022-11-14T18:04:41.304Z,53.63
2022-11-14T18:07:26.606Z,53.12
2022-11-14T18:10:11.947Z,51.57
2022-11-14T18:12:57.462Z,51.36
2022-11-14T18:15:42.947Z,51.21
2022-11-14T18:18:31.300Z,51.74
2022-11-14T18:21:19.965Z,52.71
2022-11-14T18:24:05.562Z,51.31
2022-11-14T18:26:51.079Z,50.81
2022-11-14T18:29:36.540Z,50.58
2022-11-14T18:32:22.274Z,50.08
2022-11-14T18:35:08.068Z,51.71
2022-11-14T18:37:53.925Z,53.14
2022-11-14T18:40:44.209Z,53.82
2022-11-14T18:43:32.840Z,54.28
2022-11-14T18:46:21.716Z,52.47
2022-11-14T18:49:07.355Z,51.61
2022-11-14T18:51:52.715Z,50.96
2022-11-14T18:54:38.091Z,50.84
2022-11-14T18:57:23.582Z,50.51
2022-11-14T19:00:10.362Z,50.47
2022-11-14T19:02:55.858Z,49.75
2022-11-14T19:05:41.266Z,49.49
2022-11-14T19:08:26.712Z,49.10
2022-11-14T19:11:34.448Z,48.67
2022-11-14T19:14:20.617Z,50.26
2022-11-14T19:17:07.175Z,52.74
2022-11-14T19:19:55.602Z,52.55
2022-11-14T19:22:41.489Z,52.64
2022-11-14T19:25:26.725Z,51.85
2022-11-14T19:28:13.276Z,51.53
2022-11-14T19:31:03.118Z,50.67
2022-11-14T19:33:49.225Z,49.97
2022-11-14T19:39:41.431Z,50.71
2022-11-14T19:42:26.957Z,50.96
2022-11-14T19:45:12.184Z,51.46
2022-11-14T19:47:57.632Z,54.00
2022-11-14T19:50:43.555Z,52.58
2022-11-14T19:53:29.441Z,51.60
2022-11-14T19:56:17.920Z,53.15
2022-11-14T19:59:09.556Z,52.26
2022-11-14T20:01:58.332Z,51.46
2022-11-14T20:04:46.731Z,50.80
2022-11-14T20:07:33.229Z,50.47
2022-11-14T20:10:18.751Z,50.35
2022-11-14T20:13:08.650Z,50.88
2022-11-14T20:15:54.001Z,52.65
2022-11-14T20:18:41.426Z,51.99
2022-11-14T20:21:29.877Z,52.21
2022-11-14T20:24:21.367Z,52.32
2022-11-14T20:27:06.487Z,54.37
2022-11-14T20:29:52.041Z,53.08
2022-11-14T20:32:37.598Z,51.54
2022-11-14T20:35:41.641Z,51.88
2022-11-14T20:38:30.060Z,51.55
2022-11-14T20:41:16.047Z,51.77
2022-11-14T20:44:03.441Z,52.67
2022-11-14T20:46:49.372Z,54.94
2022-11-14T20:49:35.130Z,54.63
2022-11-14T20:52:20.572Z,53.01
2022-11-14T20:55:11.593Z,53.72
2022-11-14T20:57:57.752Z,54.40
2022-11-14T21:00:43.056Z,52.63
2022-11-14T21:03:29.087Z,51.86
2022-11-14T21:06:16.092Z,51.26
2022-11-14T21:09:01.687Z,51.07
2022-11-14T21:11:47.771Z,50.88
2022-11-14T21:14:33.219Z,51.04
2022-11-14T21:17:19.070Z,50.60
2022-11-14T21:20:04.994Z,50.47
2022-11-14T21:22:50.392Z,50.50
2022-11-14T21:25:35.869Z,50.37
2022-11-14T21:28:21.413Z,50.49
2022-11-14T21:31:20.328Z,52.39
2022-11-14T21:34:09.553Z,51.40
2022-11-14T21:36:54.984Z,51.61
2022-11-14T21:39:40.573Z,51.24
2022-11-14T21:42:26.306Z,50.93
2022-11-14T21:45:11.884Z,50.59
2022-11-14T21:47:57.748Z,50.24
2022-11-14T21:50:43.171Z,50.07
2022-11-14T21:53:29.329Z,50.81
2022-11-14T21:56:18.595Z,50.67
2022-11-14T21:59:14.540Z,51.72
2022-11-14T22:02:18.493Z,51.79
2022-11-14T22:05:04.439Z,52.49
2022-11-14T22:07:49.807Z,52.09
2022-11-14T22:10:35.199Z,51.77
2022-11-14T22:13:20.506Z,51.73
2022-11-14T22:16:07.625Z,53.51
2022-11-14T22:18:53.459Z,52.17
2022-11-14T22:21:39.372Z,51.29
2022-11-14T22:24:25.153Z,50.52
2022-11-14T22:27:10.398Z,50.26
2022-11-14T22:29:55.794Z,50.56
2022-11-14T22:32:41.403Z,50.60
2022-11-14T22:35:26.758Z,50.89
2022-11-14T22:38:12.275Z,51.00
2022-11-14T22:40:58.311Z,52.84
2022-11-14T22:43:43.997Z,51.20
2022-11-14T22:46:29.864Z,50.63
2022-11-14T22:49:20.656Z,51.34
2022-11-14T22:52:06.361Z,54.57
2022-11-14T22:54:51.765Z,55.14
2022-11-14T22:57:37.225Z,52.19
2022-11-14T23:00:22.755Z,51.31
2022-11-14T23:03:08.334Z,50.54
2022-11-14T23:05:53.611Z,50.37
2022-11-14T23:08:40.047Z,50.34
2022-11-14T23:11:28.387Z,49.87
2022-11-14T23:14:16.593Z,49.52
2022-11-14T23:17:02.446Z,50.48
2022-11-14T23:19:47.831Z,50.45
2022-11-14T23:22:33.290Z,50.62
2022-11-14T23:25:20.410Z,51.74
2022-11-14T23:28:05.730Z,53.82
2022-11-14T23:30:50.865Z,53.31
2022-11-14T23:33:36.695Z,54.61
2022-11-14T23:36:23.249Z,52.41
2022-11-14T23:39:08.623Z,51.18
2022-11-14T23:41:54.015Z,51.38
2022-11-14T23:44:39.368Z,50.75
2022-11-14T23:47:24.646Z,50.00
2022-11-14T23:50:10.497Z,49.71
2022-11-14T23:52:55.675Z,50.17
2022-11-14T23:55:42.138Z,50.13
2022-11-14T23:58:29.657Z,49.69
